メインページ
METAR-TAF:

METAR-TAF

空港 :

Wawa, オンタリオ州, カナダ

緯度: 47-58N, 経度: 084-47W, 海抜: 287m

現時点の気象観測

当レポートは2時間38分前の00:00(UTC)に作成
変向風 2kt
気温 -12°C
湿度 78%
気圧 1024 hPa
視程: 24.1km
高度2000ftの雲はほとんどない
高度10000ftの雲は散在している
高度20000ftの千切れ雲あり
小雪

METAR: CYXZ 070000Z VRB02KT 15SM -SN FEW020 SCT100 BKN200 M12/M15 A3023 RMK SC2AS2CS3 LAST OBS/NEXT 071100UTC SLP263

時間: 21:38 (02:38 UTC)

予報

当レポートは7時間0分前の19:38(UTC)に作成
予報は06日の 20時(UTC)から 06日の 24時(UTC)まで有効
北西の風 10kt
視程: 10km
高度3000ftの曇り
小雪
06日の 20時(UTC)から 06日の 24時(UTC)まで一時的に
視程: 4.8km
高度2000ftの千切れ雲あり
弱いにわか雪

TAF: CYXZ 061938Z 0620/0624 32010KT P6SM -SN OVC030 TEMPO 0620/0624 3SM -SHSN BKN020 RMK NXT FCST WILL BE ISSUED AT 071245Z

4,000以上の空港の気象観測と天気予報(METAR報とTAF報)

利用可能な観測所は地図上に黄色い丸と赤い丸で示す。

丸の上にカーソルを重ねると観測所名を参照できる。

次にクリックすると気象観測と天気予報を参照できる。

マップの切り替え:黒色「×」印の緑ボタンをクリックして拡大、「-」印の緑ボタンをクリックして縮小、緑色の三角印をクリックして隣りの地図に切り替え


METAR-TAF: